CYRL

Red Lake Airport

Red Lake, Ontario, Canada
METAR CYRL 172110Z 29011G17KT 10SM -SN DRSN BKN019 M14/M19 A2968 RMK SC7 SLP087
Observed Flight Rules
Feb-17 @ 21:10 UTC (25 minutes ago) Marginal Visual Flight Rules
Wind Visibility Clouds Conditions
290° at 11 knots
 Gusting to 17 knots
10 miles
  • Broken at 1,900' AGL
  • Light Snow
  • Low drifting
  • Snow
Temperatures Readings
Current -14°C / 7°F
Dewpoint -19°C / -2°F
Humidity 66%
Altimeter 29.68" Hg
Pressure 1008.7 hPa
Elevation 383
METAR CYRL 172110Z 29011G17KT 10SM -SN DRSN BKN019 M14/M19 A2968 RMK SC7 SLP087
Observed Flight Rules
Feb-17 @ 21:10 UTC
(25 minutes ago)
MVFR
Wind Visibility
290° at 11 knots
 Gusting to 17 knots
10 miles
Clouds
  • Broken at 1,900' AGL
Conditions
  • Light Snow
  • Low drifting
  • Snow
Temperature Dewpoint
-14°C / 7°F -19°C / -2°F
Humidity Altimeter Pressure
66% 29.68" Hg 1008.7 hPa